MSC Lea — 9HA2639 — position and weather

sailwx.info

Track history (hours):
 
Tides and Currents Weather Stations Pressure Air Temp Water Temp Dewpoint Dewpoint Depression Visibility Wind Speed Wind Dir Waves Ship Positions

MSC Lea

Last reported at 2015-Jul-31 18:11 UTC. Time now 2015-Jul-31 19:26 UTC.
Position N 40°06' E 018°45'.

Length 217 m; draft 8.5 m.

Type: Ship (hazmat cat A). MMSI: 215101000.

Date/timePositionNaut miles runAvg speedWind from/ knotsBaromVisibWave heightAir tempDewpointWater temp
2015-Jul-31 18:11N 40°06' E 018°45'1313.4
2015-Jul-31 17:11N 39°54' E 018°54'32112.9
2015-Jul-30 16:12N 35°35' E 022°55'2213.2
2015-Jul-30 14:33N 35°21' E 023°15'5313.2
2015-Jul-30 10:33N 34°59' E 024°13'19914.2
2015-Jul-29 20:32N 33°52' E 028°00'1313.6
2015-Jul-29 19:33N 33°48' E 028°15'1414.0
2015-Jul-29 18:33N 33°43' E 028°31'1414.2
2015-Jul-29 17:33N 33°38' E 028°47'1414.4
2015-Jul-29 16:33N 33°33' E 029°03'1514.5
2015-Jul-29 15:34N 33°28' E 029°20'1414.5
2015-Jul-29 14:34N 33°23' E 029°36'1414.3
2015-Jul-29 13:33N 33°18' E 029°52'1714.0
2015-Jul-29 12:22N 33°13' E 030°11'1314.0
2015-Jul-29 11:27N 33°09' E 030°26'1414.1
2015-Jul-29 10:26N 33°05' E 030°42'14114.2
2015-Jul-29 00:33N 32°18' E 033°20'1514.8
2015-Jul-28 23:34N 32°14' E 033°36'1514.6
2015-Jul-28 22:33N 32°08' E 033°52'1514.9
2015-Jul-28 21:33N 32°02' E 034°08'1514.6
2015-Jul-28 20:33N 31°55' E 034°23'1311.9
2015-Jul-28 19:26N 31°51' E 034°38'41 1.0
2015-Jul-27 04:34N 32°31' E 034°41'1413.5
2015-Jul-27 03:34N 32°44' E 034°46'1111.2
2015-Jul-27 02:33N 32°54' E 034°53'8 7.8
2015-Jul-27 01:29N 32°49' E 035°01'0 0.0
2015-Jul-26 22:28N 32°49' E 035°01'0 0.0
2015-Jul-26 21:32N 32°49' E 035°01'0 0.0
2015-Jul-26 19:33N 32°49' E 035°01'0 0.0
2015-Jul-26 18:16N 32°49' E 035°01'0 0.0
2015-Jul-26 17:31N 32°49' E 035°01'0 0.0
2015-Jul-26 16:23N 32°49' E 035°01'6 1.0
2015-Jul-26 10:33N 32°53' E 034°56'1 0.6
2015-Jul-26 09:33N 32°54' E 034°56'11 5.4
2015-Jul-26 07:32N 32°55' E 034°43'1817.2
2015-Jul-26 06:29N 32°59' E 034°22'3517.3
2015-Jul-26 04:27N 33°06' E 033°41'1516.6
2015-Jul-26 03:34N 33°10' E 033°24'1716.6
2015-Jul-26 02:34N 33°13' E 033°05'1716.5
2015-Jul-26 01:30N 33°17' E 032°44'1616.5
2015-Jul-26 00:32N 33°20' E 032°25'1916.1
2015-Jul-25 23:21N 33°25' E 032°03'1316.4
2015-Jul-25 22:32N 33°28' E 031°48'1716.8
2015-Jul-25 21:33N 33°32' E 031°29'3617.0
2015-Jul-25 19:27N 33°40' E 030°47'2116.7
2015-Jul-25 18:13N 33°45' E 030°23'1116.7
2015-Jul-25 17:32N 33°47' E 030°09'4013.4
2015-Jul-25 14:32N 33°57' E 029°22'32113.1
2015-Jul-24 14:06N 35°26' E 023°08'712.7
2015-Jul-24 13:32N 35°31' E 023°01'49714.5
2015-Jul-23 03:21N 42°01' E 016°27'  
Track history (hours):
 
Tides and Currents Weather Stations Pressure Air Temp Water Temp Dewpoint Dewpoint Depression Visibility Wind Speed Wind Dir Waves Ship Positions

MSC Lea

Last reported at 2015-Jul-31 18:11 UTC. Time now 2015-Jul-31 19:26 UTC.
Position N 40°06' E 018°45'.

Length 217 m; draft 8.5 m.

Type: Ship (hazmat cat A). MMSI: 215101000.

Date/timePositionNaut miles runAvg speedWind from/ knotsBaromVisibWave heightAir tempDewpointWater temp
2015-Jul-31 18:11N 40°06' E 018°45'1313.4
2015-Jul-31 17:11N 39°54' E 018°54'32112.9
2015-Jul-30 16:12N 35°35' E 022°55'2213.2
2015-Jul-30 14:33N 35°21' E 023°15'5313.2
2015-Jul-30 10:33N 34°59' E 024°13'19914.2
2015-Jul-29 20:32N 33°52' E 028°00'1313.6
2015-Jul-29 19:33N 33°48' E 028°15'1414.0
2015-Jul-29 18:33N 33°43' E 028°31'1414.2
2015-Jul-29 17:33N 33°38' E 028°47'1414.4
2015-Jul-29 16:33N 33°33' E 029°03'1514.5
2015-Jul-29 15:34N 33°28' E 029°20'1414.5
2015-Jul-29 14:34N 33°23' E 029°36'1414.3
2015-Jul-29 13:33N 33°18' E 029°52'1714.0
2015-Jul-29 12:22N 33°13' E 030°11'1314.0
2015-Jul-29 11:27N 33°09' E 030°26'1414.1
2015-Jul-29 10:26N 33°05' E 030°42'14114.2
2015-Jul-29 00:33N 32°18' E 033°20'1514.8
2015-Jul-28 23:34N 32°14' E 033°36'1514.6
2015-Jul-28 22:33N 32°08' E 033°52'1514.9
2015-Jul-28 21:33N 32°02' E 034°08'1514.6
2015-Jul-28 20:33N 31°55' E 034°23'1311.9
2015-Jul-28 19:26N 31°51' E 034°38'41 1.0
2015-Jul-27 04:34N 32°31' E 034°41'1413.5
2015-Jul-27 03:34N 32°44' E 034°46'1111.2
2015-Jul-27 02:33N 32°54' E 034°53'8 7.8
2015-Jul-27 01:29N 32°49' E 035°01'0 0.0
2015-Jul-26 22:28N 32°49' E 035°01'0 0.0
2015-Jul-26 21:32N 32°49' E 035°01'0 0.0
2015-Jul-26 19:33N 32°49' E 035°01'0 0.0
2015-Jul-26 18:16N 32°49' E 035°01'0 0.0
2015-Jul-26 17:31N 32°49' E 035°01'0 0.0
2015-Jul-26 16:23N 32°49' E 035°01'6 1.0
2015-Jul-26 10:33N 32°53' E 034°56'1 0.6
2015-Jul-26 09:33N 32°54' E 034°56'11 5.4
2015-Jul-26 07:32N 32°55' E 034°43'1817.2
2015-Jul-26 06:29N 32°59' E 034°22'3517.3
2015-Jul-26 04:27N 33°06' E 033°41'1516.6
2015-Jul-26 03:34N 33°10' E 033°24'1716.6
2015-Jul-26 02:34N 33°13' E 033°05'1716.5
2015-Jul-26 01:30N 33°17' E 032°44'1616.5
2015-Jul-26 00:32N 33°20' E 032°25'1916.1
2015-Jul-25 23:21N 33°25' E 032°03'1316.4
2015-Jul-25 22:32N 33°28' E 031°48'1716.8
2015-Jul-25 21:33N 33°32' E 031°29'3617.0
2015-Jul-25 19:27N 33°40' E 030°47'2116.7
2015-Jul-25 18:13N 33°45' E 030°23'1116.7
2015-Jul-25 17:32N 33°47' E 030°09'4013.4
2015-Jul-25 14:32N 33°57' E 029°22'32113.1
2015-Jul-24 14:06N 35°26' E 023°08'712.7
2015-Jul-24 13:32N 35°31' E 023°01'49714.5
2015-Jul-23 03:21N 42°01' E 016°27'  

Dump ship's entire track history